Terminal Aerodrome Forecast
Issued by NWS Memphis, TN

Home | Current Version | Previous Version | Text Only | Print | Product List | Glossary On
Versions: 1 2 3 4 5 6 7 8 9 10 11 12 13 14 15 16 17 18 19 20 21 22 23 24 25 26 27 28 29
000
FTUS44 KMEG 262101 AAA
TAFMEM
TAF AMD
KMEM 262101Z 2621/2718 36010G17KT P6SM VCSH BKN015 OVC040
      TEMPO 2621/2623 -RA
     FM270000 02007KT P6SM SCT020 SCT100
     FM270300 01004KT P6SM SKC
     FM271500 01008KT P6SM BKN040=

USA.gov is the U.S. government's official web portal to all federal, state and local government web resources and services.